sensor_id;sensor_type;location;lat;lon;timestamp;temperature;humidity
580;DHT22;276;48.392;9.950;2022-12-24T00:00:10;12.50;99.90
580;DHT22;276;48.392;9.950;2022-12-24T00:02:38;12.50;99.90
580;DHT22;276;48.392;9.950;2022-12-24T00:05:04;12.50;99.90
580;DHT22;276;48.392;9.950;2022-12-24T00:07:30;12.50;99.90
580;DHT22;276;48.392;9.950;2022-12-24T00:09:58;12.50;99.90
580;DHT22;276;48.392;9.950;2022-12-24T00:12:26;12.50;99.90
580;DHT22;276;48.392;9.950;2022-12-24T00:14:52;12.50;99.90
580;DHT22;276;48.392;9.950;2022-12-24T00:17:20;12.40;99.90
580;DHT22;276;48.392;9.950;2022-12-24T00:19:45;12.40;99.90
580;DHT22;276;48.392;9.950;2022-12-24T00:22:13;12.50;99.90
580;DHT22;276;48.392;9.950;2022-12-24T00:24:39;12.50;99.90
580;DHT22;276;48.392;9.950;2022-12-24T00:27:07;12.50;99.90
580;DHT22;276;48.392;9.950;2022-12-24T00:29:35;12.50;99.90
580;DHT22;276;48.392;9.950;2022-12-24T00:32:02;12.50;99.90
580;DHT22;276;48.392;9.950;2022-12-24T00:34:32;12.40;99.90
580;DHT22;276;48.392;9.950;2022-12-24T00:37:00;12.40;99.90
580;DHT22;276;48.392;9.950;2022-12-24T00:39:26;12.30;99.90
580;DHT22;276;48.392;9.950;2022-12-24T00:41:54;12.20;99.90
580;DHT22;276;48.392;9.950;2022-12-24T00:44:20;12.20;99.90
580;DHT22;276;48.392;9.950;2022-12-24T00:46:50;12.10;99.90
580;DHT22;276;48.392;9.950;2022-12-24T00:49:15;12.10;99.90
580;DHT22;276;48.392;9.950;2022-12-24T00:51:41;12.00;99.90
580;DHT22;276;48.392;9.950;2022-12-24T00:54:09;11.90;99.90
580;DHT22;276;48.392;9.950;2022-12-24T00:56:37;11.90;99.90
580;DHT22;276;48.392;9.950;2022-12-24T00:59:03;11.80;99.90
580;DHT22;276;48.392;9.950;2022-12-24T01:01:28;11.80;99.90
580;DHT22;276;48.392;9.950;2022-12-24T01:03:54;11.70;99.90
580;DHT22;276;48.392;9.950;2022-12-24T01:06:39;11.70;99.90
580;DHT22;276;48.392;9.950;2022-12-24T01:09:07;11.70;99.90
580;DHT22;276;48.392;9.950;2022-12-24T01:11:32;11.70;99.90
580;DHT22;276;48.392;9.950;2022-12-24T01:14:00;11.70;99.90
580;DHT22;276;48.392;9.950;2022-12-24T01:16:26;11.70;99.90
580;DHT22;276;48.392;9.950;2022-12-24T01:18:52;11.70;99.90
580;DHT22;276;48.392;9.950;2022-12-24T01:21:22;11.60;99.90
580;DHT22;276;48.392;9.950;2022-12-24T01:23:48;11.60;99.90
580;DHT22;276;48.392;9.950;2022-12-24T01:26:13;11.60;99.90
580;DHT22;276;48.392;9.950;2022-12-24T01:28:40;11.60;99.90
580;DHT22;276;48.392;9.950;2022-12-24T01:31:14;11.60;99.90
580;DHT22;276;48.392;9.950;2022-12-24T01:33:41;11.60;99.90
580;DHT22;276;48.392;9.950;2022-12-24T01:36:10;11.50;99.90
580;DHT22;276;48.392;9.950;2022-12-24T01:38:35;11.60;99.90
580;DHT22;276;48.392;9.950;2022-12-24T01:41:01;11.60;99.90
580;DHT22;276;48.392;9.950;2022-12-24T01:43:45;11.60;99.90
580;DHT22;276;48.392;9.950;2022-12-24T01:46:24;11.50;99.90
580;DHT22;276;48.392;9.950;2022-12-24T01:49:01;11.50;99.90
580;DHT22;276;48.392;9.950;2022-12-24T01:51:39;11.50;99.90
580;DHT22;276;48.392;9.950;2022-12-24T01:57:09;11.60;99.90
580;DHT22;276;48.392;9.950;2022-12-24T01:59:36;11.50;99.90
580;DHT22;276;48.392;9.950;2022-12-24T02:02:03;11.50;99.90
580;DHT22;276;48.392;9.950;2022-12-24T02:05:05;11.50;99.90
580;DHT22;276;48.392;9.950;2022-12-24T02:07:34;11.40;99.90
580;DHT22;276;48.392;9.950;2022-12-24T02:10:04;11.40;99.90
580;DHT22;276;48.392;9.950;2022-12-24T02:12:34;11.40;99.90
580;DHT22;276;48.392;9.950;2022-12-24T02:15:02;11.40;99.90
580;DHT22;276;48.392;9.950;2022-12-24T02:31:43;11.20;99.90
580;DHT22;276;48.392;9.950;2022-12-24T02:37:18;11.20;99.90
580;DHT22;276;48.392;9.950;2022-12-24T02:40:08;11.20;99.90
580;DHT22;276;48.392;9.950;2022-12-24T02:42:38;11.20;99.90
580;DHT22;276;48.392;9.950;2022-12-24T02:45:09;11.10;99.90
580;DHT22;276;48.392;9.950;2022-12-24T02:47:38;11.10;99.90
580;DHT22;276;48.392;9.950;2022-12-24T02:50:07;11.10;99.90
580;DHT22;276;48.392;9.950;2022-12-24T02:52:39;11.10;99.90
580;DHT22;276;48.392;9.950;2022-12-24T02:55:43;11.10;99.90
580;DHT22;276;48.392;9.950;2022-12-24T03:01:00;11.00;99.90
580;DHT22;276;48.392;9.950;2022-12-24T03:07:00;11.00;99.90
580;DHT22;276;48.392;9.950;2022-12-24T03:09:55;11.00;99.90
580;DHT22;276;48.392;9.950;2022-12-24T03:12:36;11.00;99.90
580;DHT22;276;48.392;9.950;2022-12-24T03:15:10;11.00;99.90
580;DHT22;276;48.392;9.950;2022-12-24T03:17:38;11.00;99.90
580;DHT22;276;48.392;9.950;2022-12-24T03:20:08;11.00;99.90
580;DHT22;276;48.392;9.950;2022-12-24T03:22:37;11.00;99.90
580;DHT22;276;48.392;9.950;2022-12-24T03:25:03;11.00;99.90
580;DHT22;276;48.392;9.950;2022-12-24T03:27:32;11.00;99.90
580;DHT22;276;48.392;9.950;2022-12-24T03:30:04;11.00;99.90
580;DHT22;276;48.392;9.950;2022-12-24T03:32:32;11.00;99.90
580;DHT22;276;48.392;9.950;2022-12-24T03:34:58;11.00;99.90
580;DHT22;276;48.392;9.950;2022-12-24T03:37:24;11.00;99.90
580;DHT22;276;48.392;9.950;2022-12-24T03:39:51;11.00;99.90
580;DHT22;276;48.392;9.950;2022-12-24T03:42:17;11.00;99.90
580;DHT22;276;48.392;9.950;2022-12-24T03:44:47;11.00;99.90
580;DHT22;276;48.392;9.950;2022-12-24T03:47:13;11.00;99.90
580;DHT22;276;48.392;9.950;2022-12-24T03:49:41;11.00;99.90
580;DHT22;276;48.392;9.950;2022-12-24T03:52:07;11.00;99.90
580;DHT22;276;48.392;9.950;2022-12-24T03:54:32;11.00;99.90
580;DHT22;276;48.392;9.950;2022-12-24T03:57:00;11.10;99.90
580;DHT22;276;48.392;9.950;2022-12-24T03:59:26;11.10;99.90
580;DHT22;276;48.392;9.950;2022-12-24T04:01:52;11.10;99.90
580;DHT22;276;48.392;9.950;2022-12-24T04:04:17;11.10;99.90
580;DHT22;276;48.392;9.950;2022-12-24T04:06:43;11.20;99.90
580;DHT22;276;48.392;9.950;2022-12-24T04:09:13;11.20;99.90
580;DHT22;276;48.392;9.950;2022-12-24T04:11:41;11.20;99.90
580;DHT22;276;48.392;9.950;2022-12-24T04:14:07;11.30;99.90
580;DHT22;276;48.392;9.950;2022-12-24T04:16:34;11.30;99.90
580;DHT22;276;48.392;9.950;2022-12-24T04:19:00;11.30;99.90
580;DHT22;276;48.392;9.950;2022-12-24T04:21:26;11.30;99.90
580;DHT22;276;48.392;9.950;2022-12-24T04:23:54;11.30;99.90
580;DHT22;276;48.392;9.950;2022-12-24T04:26:21;11.40;99.90
580;DHT22;276;48.392;9.950;2022-12-24T04:28:47;11.40;99.90
580;DHT22;276;48.392;9.950;2022-12-24T04:31:16;11.50;99.90
580;DHT22;276;48.392;9.950;2022-12-24T04:33:42;11.60;99.90
580;DHT22;276;48.392;9.950;2022-12-24T04:36:13;11.60;99.90
580;DHT22;276;48.392;9.950;2022-12-24T04:38:39;11.60;99.90
580;DHT22;276;48.392;9.950;2022-12-24T04:41:11;11.60;99.90
580;DHT22;276;48.392;9.950;2022-12-24T04:43:41;11.70;99.90
580;DHT22;276;48.392;9.950;2022-12-24T04:48:37;11.70;99.90
580;DHT22;276;48.392;9.950;2022-12-24T04:51:06;11.60;99.90
580;DHT22;276;48.392;9.950;2022-12-24T04:53:32;11.60;99.90
580;DHT22;276;48.392;9.950;2022-12-24T04:56:01;11.60;99.90
580;DHT22;276;48.392;9.950;2022-12-24T04:58:27;11.50;99.90
580;DHT22;276;48.392;9.950;2022-12-24T05:00:55;11.50;99.90
580;DHT22;276;48.392;9.950;2022-12-24T05:03:23;11.40;99.90
580;DHT22;276;48.392;9.950;2022-12-24T05:05:51;11.40;99.90
580;DHT22;276;48.392;9.950;2022-12-24T05:08:16;11.40;99.90
580;DHT22;276;48.392;9.950;2022-12-24T05:10:54;11.40;99.90
580;DHT22;276;48.392;9.950;2022-12-24T05:13:20;11.40;99.90
580;DHT22;276;48.392;9.950;2022-12-24T05:15:45;11.30;99.90
580;DHT22;276;48.392;9.950;2022-12-24T05:18:11;11.30;99.90
580;DHT22;276;48.392;9.950;2022-12-24T05:20:40;11.30;99.90
580;DHT22;276;48.392;9.950;2022-12-24T05:23:06;11.30;99.90
580;DHT22;276;48.392;9.950;2022-12-24T05:25:50;11.30;99.90
580;DHT22;276;48.392;9.950;2022-12-24T05:28:34;11.30;99.90
580;DHT22;276;48.392;9.950;2022-12-24T05:31:02;11.20;99.90
580;DHT22;276;48.392;9.950;2022-12-24T05:33:32;11.20;99.90
580;DHT22;276;48.392;9.950;2022-12-24T05:36:00;11.10;99.90
580;DHT22;276;48.392;9.950;2022-12-24T05:38:26;11.10;99.90
580;DHT22;276;48.392;9.950;2022-12-24T05:40:51;11.00;99.90
580;DHT22;276;48.392;9.950;2022-12-24T05:43:17;11.00;99.90
580;DHT22;276;48.392;9.950;2022-12-24T05:45:42;11.00;99.90
580;DHT22;276;48.392;9.950;2022-12-24T05:48:08;11.10;99.90
580;DHT22;276;48.392;9.950;2022-12-24T05:50:35;11.10;99.90
580;DHT22;276;48.392;9.950;2022-12-24T05:53:00;11.10;99.90
580;DHT22;276;48.392;9.950;2022-12-24T05:55:31;11.00;99.90
580;DHT22;276;48.392;9.950;2022-12-24T05:57:59;11.00;99.90
580;DHT22;276;48.392;9.950;2022-12-24T06:00:27;11.00;99.90
580;DHT22;276;48.392;9.950;2022-12-24T06:02:52;11.00;99.90
580;DHT22;276;48.392;9.950;2022-12-24T06:05:18;11.00;99.90
580;DHT22;276;48.392;9.950;2022-12-24T06:07:48;11.00;99.90
580;DHT22;276;48.392;9.950;2022-12-24T06:10:14;11.00;99.90
580;DHT22;276;48.392;9.950;2022-12-24T06:12:44;11.00;99.90
580;DHT22;276;48.392;9.950;2022-12-24T06:15:10;10.90;99.90
580;DHT22;276;48.392;9.950;2022-12-24T06:17:35;10.90;99.90
580;DHT22;276;48.392;9.950;2022-12-24T06:20:01;10.90;99.90
580;DHT22;276;48.392;9.950;2022-12-24T06:22:27;10.90;99.90
580;DHT22;276;48.392;9.950;2022-12-24T06:24:52;10.90;99.90
580;DHT22;276;48.392;9.950;2022-12-24T06:27:18;10.90;99.90
580;DHT22;276;48.392;9.950;2022-12-24T06:29:46;10.90;99.90
580;DHT22;276;48.392;9.950;2022-12-24T06:32:11;10.90;99.90
580;DHT22;276;48.392;9.950;2022-12-24T06:34:37;11.00;99.90
580;DHT22;276;48.392;9.950;2022-12-24T06:37:05;10.90;99.90
580;DHT22;276;48.392;9.950;2022-12-24T06:39:31;11.00;99.90
580;DHT22;276;48.392;9.950;2022-12-24T06:41:58;11.00;99.90
580;DHT22;276;48.392;9.950;2022-12-24T06:44:24;10.90;99.90
580;DHT22;276;48.392;9.950;2022-12-24T06:46:52;11.00;99.90
580;DHT22;276;48.392;9.950;2022-12-24T06:49:20;11.00;99.90
580;DHT22;276;48.392;9.950;2022-12-24T06:51:45;11.00;99.90
580;DHT22;276;48.392;9.950;2022-12-24T06:54:13;10.90;99.90
580;DHT22;276;48.392;9.950;2022-12-24T06:56:41;10.90;99.90
580;DHT22;276;48.392;9.950;2022-12-24T06:59:06;10.90;99.90
580;DHT22;276;48.392;9.950;2022-12-24T07:01:34;11.00;99.90
580;DHT22;276;48.392;9.950;2022-12-24T07:04:02;10.90;99.90
580;DHT22;276;48.392;9.950;2022-12-24T07:06:33;10.90;99.90
580;DHT22;276;48.392;9.950;2022-12-24T07:09:01;10.90;99.90
580;DHT22;276;48.392;9.950;2022-12-24T07:11:29;10.90;99.90
580;DHT22;276;48.392;9.950;2022-12-24T07:13:55;10.90;99.90
580;DHT22;276;48.392;9.950;2022-12-24T07:16:23;10.90;99.90
580;DHT22;276;48.392;9.950;2022-12-24T07:18:49;10.90;99.90
580;DHT22;276;48.392;9.950;2022-12-24T07:21:14;10.90;99.90
580;DHT22;276;48.392;9.950;2022-12-24T07:23:42;10.90;99.90
580;DHT22;276;48.392;9.950;2022-12-24T07:26:09;10.90;99.90
580;DHT22;276;48.392;9.950;2022-12-24T07:28:34;10.80;99.90
580;DHT22;276;48.392;9.950;2022-12-24T07:31:00;10.80;99.90
580;DHT22;276;48.392;9.950;2022-12-24T07:33:28;10.80;99.90
580;DHT22;276;48.392;9.950;2022-12-24T07:36:04;10.80;99.90
580;DHT22;276;48.392;9.950;2022-12-24T07:38:31;10.80;99.90
580;DHT22;276;48.392;9.950;2022-12-24T07:41:00;10.70;99.90
580;DHT22;276;48.392;9.950;2022-12-24T07:43:28;10.70;99.90
580;DHT22;276;48.392;9.950;2022-12-24T07:45:55;10.70;99.90
580;DHT22;276;48.392;9.950;2022-12-24T07:48:21;10.70;99.90
580;DHT22;276;48.392;9.950;2022-12-24T07:50:49;10.70;99.90
580;DHT22;276;48.392;9.950;2022-12-24T07:53:14;10.70;99.90
580;DHT22;276;48.392;9.950;2022-12-24T07:55:40;10.70;99.90
580;DHT22;276;48.392;9.950;2022-12-24T07:58:08;10.70;99.90
580;DHT22;276;48.392;9.950;2022-12-24T08:00:36;10.70;99.90
580;DHT22;276;48.392;9.950;2022-12-24T08:03:02;10.80;99.90
580;DHT22;276;48.392;9.950;2022-12-24T08:05:27;10.80;99.90
580;DHT22;276;48.392;9.950;2022-12-24T08:07:53;10.80;99.90
580;DHT22;276;48.392;9.950;2022-12-24T08:10:20;10.80;99.90
580;DHT22;276;48.392;9.950;2022-12-24T08:12:45;10.90;99.90
580;DHT22;276;48.392;9.950;2022-12-24T08:15:15;10.80;99.90
580;DHT22;276;48.392;9.950;2022-12-24T08:17:41;10.90;99.90
580;DHT22;276;48.392;9.950;2022-12-24T08:20:07;10.90;99.90
580;DHT22;276;48.392;9.950;2022-12-24T08:22:33;10.90;99.90
580;DHT22;276;48.392;9.950;2022-12-24T08:25:01;11.00;99.90
580;DHT22;276;48.392;9.950;2022-12-24T08:27:29;11.00;99.90
580;DHT22;276;48.392;9.950;2022-12-24T08:29:57;11.00;99.90
580;DHT22;276;48.392;9.950;2022-12-24T08:32:22;11.00;99.90
580;DHT22;276;48.392;9.950;2022-12-24T08:34:50;11.00;99.90
580;DHT22;276;48.392;9.950;2022-12-24T08:37:16;11.00;99.90
580;DHT22;276;48.392;9.950;2022-12-24T08:39:41;11.00;99.90
580;DHT22;276;48.392;9.950;2022-12-24T08:42:07;11.00;99.90
580;DHT22;276;48.392;9.950;2022-12-24T08:44:32;10.90;99.90
580;DHT22;276;48.392;9.950;2022-12-24T08:47:00;11.00;99.90
580;DHT22;276;48.392;9.950;2022-12-24T08:49:26;11.00;99.90
580;DHT22;276;48.392;9.950;2022-12-24T08:51:54;11.00;99.90
580;DHT22;276;48.392;9.950;2022-12-24T08:54:19;11.00;99.90
580;DHT22;276;48.392;9.950;2022-12-24T08:56:46;11.00;99.90
580;DHT22;276;48.392;9.950;2022-12-24T08:59:12;11.10;99.90
580;DHT22;276;48.392;9.950;2022-12-24T09:01:38;11.10;99.90
580;DHT22;276;48.392;9.950;2022-12-24T09:04:03;11.10;99.90
580;DHT22;276;48.392;9.950;2022-12-24T09:06:30;11.20;99.90
580;DHT22;276;48.392;9.950;2022-12-24T09:08:56;11.30;99.90
580;DHT22;276;48.392;9.950;2022-12-24T09:11:22;11.40;99.90
580;DHT22;276;48.392;9.950;2022-12-24T09:13:50;11.40;99.90
580;DHT22;276;48.392;9.950;2022-12-24T09:16:16;11.40;99.90
580;DHT22;276;48.392;9.950;2022-12-24T09:18:41;11.30;99.90
580;DHT22;276;48.392;9.950;2022-12-24T09:21:12;11.40;99.90
580;DHT22;276;48.392;9.950;2022-12-24T09:23:40;11.40;99.90
580;DHT22;276;48.392;9.950;2022-12-24T09:26:13;11.40;99.90
580;DHT22;276;48.392;9.950;2022-12-24T09:28:41;11.30;99.90
580;DHT22;276;48.392;9.950;2022-12-24T09:31:11;11.40;99.90
580;DHT22;276;48.392;9.950;2022-12-24T09:33:42;11.60;99.90
580;DHT22;276;48.392;9.950;2022-12-24T09:36:08;11.90;99.90
580;DHT22;276;48.392;9.950;2022-12-24T09:38:35;12.30;99.90
580;DHT22;276;48.392;9.950;2022-12-24T09:41:10;12.60;99.90
580;DHT22;276;48.392;9.950;2022-12-24T09:43:45;12.80;99.90
580;DHT22;276;48.392;9.950;2022-12-24T09:48:45;13.10;99.90
580;DHT22;276;48.392;9.950;2022-12-24T09:54:11;13.10;99.90
580;DHT22;276;48.392;9.950;2022-12-24T09:56:46;13.10;99.90
580;DHT22;276;48.392;9.950;2022-12-24T09:59:38;12.90;99.90
580;DHT22;276;48.392;9.950;2022-12-24T10:02:12;12.70;99.90
580;DHT22;276;48.392;9.950;2022-12-24T10:04:39;12.60;99.90
580;DHT22;276;48.392;9.950;2022-12-24T10:12:40;12.50;99.90
580;DHT22;276;48.392;9.950;2022-12-24T10:15:12;12.40;99.90
580;DHT22;276;48.392;9.950;2022-12-24T10:18:47;12.30;99.90
580;DHT22;276;48.392;9.950;2022-12-24T10:23:48;12.00;99.90
580;DHT22;276;48.392;9.950;2022-12-24T10:32:21;11.70;99.90
580;DHT22;276;48.392;9.950;2022-12-24T10:37:47;11.60;99.90
580;DHT22;276;48.392;9.950;2022-12-24T10:42:54;11.60;99.90
580;DHT22;276;48.392;9.950;2022-12-24T10:45:22;11.50;99.90
580;DHT22;276;48.392;9.950;2022-12-24T10:48:00;11.60;99.90
580;DHT22;276;48.392;9.950;2022-12-24T10:50:33;11.50;99.90
580;DHT22;276;48.392;9.950;2022-12-24T10:53:57;11.40;99.90
580;DHT22;276;48.392;9.950;2022-12-24T10:56:08;11.40;99.90
580;DHT22;276;48.392;9.950;2022-12-24T10:58:34;11.40;99.90
580;DHT22;276;48.392;9.950;2022-12-24T11:01:02;11.40;99.90
580;DHT22;276;48.392;9.950;2022-12-24T11:03:37;11.40;99.90
580;DHT22;276;48.392;9.950;2022-12-24T11:06:13;11.50;99.90
580;DHT22;276;48.392;9.950;2022-12-24T11:08:44;11.40;99.90
580;DHT22;276;48.392;9.950;2022-12-24T11:11:15;11.40;99.90
580;DHT22;276;48.392;9.950;2022-12-24T11:16:31;11.50;99.90
580;DHT22;276;48.392;9.950;2022-12-24T11:19:04;11.50;99.90
580;DHT22;276;48.392;9.950;2022-12-24T11:21:33;11.50;99.90
580;DHT22;276;48.392;9.950;2022-12-24T11:26:31;11.50;99.90
580;DHT22;276;48.392;9.950;2022-12-24T11:31:44;11.50;99.90
580;DHT22;276;48.392;9.950;2022-12-24T11:34:31;11.50;99.90
580;DHT22;276;48.392;9.950;2022-12-24T11:37:20;11.50;99.90
580;DHT22;276;48.392;9.950;2022-12-24T11:39:51;11.50;99.90
580;DHT22;276;48.392;9.950;2022-12-24T11:42:37;11.60;99.90
580;DHT22;276;48.392;9.950;2022-12-24T11:45:26;11.60;99.90
580;DHT22;276;48.392;9.950;2022-12-24T11:47:52;11.60;99.90
580;DHT22;276;48.392;9.950;2022-12-24T11:52:58;11.60;99.90
580;DHT22;276;48.392;9.950;2022-12-24T11:58:41;11.60;99.90
580;DHT22;276;48.392;9.950;2022-12-24T12:01:46;11.70;99.90
580;DHT22;276;48.392;9.950;2022-12-24T12:04:20;11.70;99.90
580;DHT22;276;48.392;9.950;2022-12-24T12:09:37;12.00;99.90
580;DHT22;276;48.392;9.950;2022-12-24T12:12:07;12.00;99.90
580;DHT22;276;48.392;9.950;2022-12-24T12:14:40;12.90;99.90
580;DHT22;276;48.392;9.950;2022-12-24T12:17:31;14.20;99.90
580;DHT22;276;48.392;9.950;2022-12-24T12:27:54;14.00;99.90
580;DHT22;276;48.392;9.950;2022-12-24T12:30:22;13.70;99.90
580;DHT22;276;48.392;9.950;2022-12-24T12:35:40;13.10;99.90
580;DHT22;276;48.392;9.950;2022-12-24T12:38:13;12.80;99.90
580;DHT22;276;48.392;9.950;2022-12-24T12:57:44;11.80;99.90
580;DHT22;276;48.392;9.950;2022-12-24T13:00:16;11.70;99.90
580;DHT22;276;48.392;9.950;2022-12-24T13:21:58;11.60;99.90
580;DHT22;276;48.392;9.950;2022-12-24T13:24:28;11.60;99.90
580;DHT22;276;48.392;9.950;2022-12-24T13:27:06;11.60;99.90
580;DHT22;276;48.392;9.950;2022-12-24T13:29:50;11.50;99.90
580;DHT22;276;48.392;9.950;2022-12-24T13:37:21;11.50;99.90
580;DHT22;276;48.392;9.950;2022-12-24T13:47:59;11.50;99.90
580;DHT22;276;48.392;9.950;2022-12-24T13:50:47;11.40;99.90
580;DHT22;276;48.392;9.950;2022-12-24T13:55:54;11.40;99.90
580;DHT22;276;48.392;9.950;2022-12-24T13:58:23;11.40;99.90
580;DHT22;276;48.392;9.950;2022-12-24T14:03:35;11.40;99.90
580;DHT22;276;48.392;9.950;2022-12-24T14:06:09;11.30;99.90
580;DHT22;276;48.392;9.950;2022-12-24T14:08:41;11.20;99.90
580;DHT22;276;48.392;9.950;2022-12-24T14:11:15;11.30;99.90
580;DHT22;276;48.392;9.950;2022-12-24T14:16:21;11.30;99.90
580;DHT22;276;48.392;9.950;2022-12-24T14:19:02;11.30;99.90
580;DHT22;276;48.392;9.950;2022-12-24T14:21:34;11.30;99.90
580;DHT22;276;48.392;9.950;2022-12-24T14:24:09;11.30;99.90
580;DHT22;276;48.392;9.950;2022-12-24T14:26:47;11.30;99.90
580;DHT22;276;48.392;9.950;2022-12-24T14:29:31;11.30;99.90
580;DHT22;276;48.392;9.950;2022-12-24T14:31:59;11.30;99.90
580;DHT22;276;48.392;9.950;2022-12-24T14:34:28;11.30;99.90
580;DHT22;276;48.392;9.950;2022-12-24T14:37:02;11.30;99.90
580;DHT22;276;48.392;9.950;2022-12-24T14:39:32;11.30;99.90
580;DHT22;276;48.392;9.950;2022-12-24T14:53:47;11.10;99.90
580;DHT22;276;48.392;9.950;2022-12-24T14:56:18;11.00;99.90
580;DHT22;276;48.392;9.950;2022-12-24T14:58:45;11.00;99.90
580;DHT22;276;48.392;9.950;2022-12-24T15:01:24;10.90;99.90
580;DHT22;276;48.392;9.950;2022-12-24T15:06:40;10.90;99.90
580;DHT22;276;48.392;9.950;2022-12-24T15:09:34;10.90;99.90
580;DHT22;276;48.392;9.950;2022-12-24T15:12:02;10.90;99.90
580;DHT22;276;48.392;9.950;2022-12-24T15:14:37;10.80;99.90
580;DHT22;276;48.392;9.950;2022-12-24T15:17:06;10.80;99.90
580;DHT22;276;48.392;9.950;2022-12-24T15:19:37;10.80;99.90
580;DHT22;276;48.392;9.950;2022-12-24T15:22:19;10.80;99.90
580;DHT22;276;48.392;9.950;2022-12-24T15:24:46;10.80;99.90
580;DHT22;276;48.392;9.950;2022-12-24T15:27:20;10.80;99.90
580;DHT22;276;48.392;9.950;2022-12-24T15:29:48;10.70;99.90
580;DHT22;276;48.392;9.950;2022-12-24T15:32:16;10.70;99.90
580;DHT22;276;48.392;9.950;2022-12-24T15:34:46;10.70;99.90
580;DHT22;276;48.392;9.950;2022-12-24T15:37:19;10.70;99.90
580;DHT22;276;48.392;9.950;2022-12-24T15:42:26;10.70;99.90
580;DHT22;276;48.392;9.950;2022-12-24T15:45:16;10.70;99.90
580;DHT22;276;48.392;9.950;2022-12-24T15:47:56;10.70;99.90
580;DHT22;276;48.392;9.950;2022-12-24T15:50:37;10.70;99.90
580;DHT22;276;48.392;9.950;2022-12-24T15:53:15;10.70;99.90
580;DHT22;276;48.392;9.950;2022-12-24T15:55:58;10.70;99.90
580;DHT22;276;48.392;9.950;2022-12-24T15:58:31;10.60;99.90
580;DHT22;276;48.392;9.950;2022-12-24T16:06:26;10.70;99.90
580;DHT22;276;48.392;9.950;2022-12-24T16:08:53;10.70;99.90
580;DHT22;276;48.392;9.950;2022-12-24T16:13:59;10.70;99.90
580;DHT22;276;48.392;9.950;2022-12-24T16:16:42;10.70;99.90
580;DHT22;276;48.392;9.950;2022-12-24T16:19:30;10.70;99.90
580;DHT22;276;48.392;9.950;2022-12-24T16:21:58;10.70;99.90
580;DHT22;276;48.392;9.950;2022-12-24T16:24:44;10.70;99.90
580;DHT22;276;48.392;9.950;2022-12-24T16:27:11;10.70;99.90
580;DHT22;276;48.392;9.950;2022-12-24T16:29:37;10.70;99.90
580;DHT22;276;48.392;9.950;2022-12-24T16:32:03;10.70;99.90
580;DHT22;276;48.392;9.950;2022-12-24T16:34:31;10.80;99.90
580;DHT22;276;48.392;9.950;2022-12-24T16:36:58;10.70;99.90
580;DHT22;276;48.392;9.950;2022-12-24T16:39:34;10.70;99.90
580;DHT22;276;48.392;9.950;2022-12-24T16:42:03;10.70;99.90
580;DHT22;276;48.392;9.950;2022-12-24T16:44:47;10.70;99.90
580;DHT22;276;48.392;9.950;2022-12-24T16:47:17;10.70;99.90
580;DHT22;276;48.392;9.950;2022-12-24T16:49:43;10.70;99.90
580;DHT22;276;48.392;9.950;2022-12-24T16:52:19;10.70;99.90
580;DHT22;276;48.392;9.950;2022-12-24T16:54:50;10.70;99.90
580;DHT22;276;48.392;9.950;2022-12-24T16:57:17;10.70;99.90
580;DHT22;276;48.392;9.950;2022-12-24T16:59:42;10.70;99.90
580;DHT22;276;48.392;9.950;2022-12-24T17:02:22;10.70;99.90
580;DHT22;276;48.392;9.950;2022-12-24T17:04:49;10.80;99.90
580;DHT22;276;48.392;9.950;2022-12-24T17:07:17;10.80;99.90
580;DHT22;276;48.392;9.950;2022-12-24T17:09:45;10.80;99.90
580;DHT22;276;48.392;9.950;2022-12-24T17:12:11;10.80;99.90
580;DHT22;276;48.392;9.950;2022-12-24T17:14:39;10.90;99.90
580;DHT22;276;48.392;9.950;2022-12-24T17:17:04;10.90;99.90
580;DHT22;276;48.392;9.950;2022-12-24T17:19:30;10.90;99.90
580;DHT22;276;48.392;9.950;2022-12-24T17:21:56;10.90;99.90
580;DHT22;276;48.392;9.950;2022-12-24T17:24:21;10.90;99.90
580;DHT22;276;48.392;9.950;2022-12-24T17:26:47;11.00;99.90
580;DHT22;276;48.392;9.950;2022-12-24T17:29:13;10.90;99.90
580;DHT22;276;48.392;9.950;2022-12-24T17:31:38;10.90;99.90
580;DHT22;276;48.392;9.950;2022-12-24T17:34:08;10.90;99.90
580;DHT22;276;48.392;9.950;2022-12-24T17:36:34;10.80;99.90
580;DHT22;276;48.392;9.950;2022-12-24T17:38:59;10.80;99.90
580;DHT22;276;48.392;9.950;2022-12-24T17:41:25;10.80;99.90
580;DHT22;276;48.392;9.950;2022-12-24T17:43:53;10.80;99.90
580;DHT22;276;48.392;9.950;2022-12-24T17:46:21;10.80;99.90
580;DHT22;276;48.392;9.950;2022-12-24T17:48:49;10.80;99.90
580;DHT22;276;48.392;9.950;2022-12-24T17:51:18;10.80;99.90
580;DHT22;276;48.392;9.950;2022-12-24T17:53:44;10.80;99.90
580;DHT22;276;48.392;9.950;2022-12-24T17:56:11;10.70;99.90
580;DHT22;276;48.392;9.950;2022-12-24T17:58:39;10.70;99.90
580;DHT22;276;48.392;9.950;2022-12-24T18:01:12;10.70;99.90
580;DHT22;276;48.392;9.950;2022-12-24T18:03:38;10.80;99.90
580;DHT22;276;48.392;9.950;2022-12-24T18:06:05;10.80;99.90
580;DHT22;276;48.392;9.950;2022-12-24T18:08:34;10.80;99.90
580;DHT22;276;48.392;9.950;2022-12-24T18:13:45;10.80;99.90
580;DHT22;276;48.392;9.950;2022-12-24T18:16:21;10.90;99.90
580;DHT22;276;48.392;9.950;2022-12-24T18:18:49;10.90;99.90
580;DHT22;276;48.392;9.950;2022-12-24T18:21:16;10.90;99.90
580;DHT22;276;48.392;9.950;2022-12-24T18:23:45;11.00;99.90
580;DHT22;276;48.392;9.950;2022-12-24T18:26:15;11.00;99.90
580;DHT22;276;48.392;9.950;2022-12-24T18:28:41;11.00;99.90
580;DHT22;276;48.392;9.950;2022-12-24T18:31:16;11.10;99.90
580;DHT22;276;48.392;9.950;2022-12-24T18:33:43;11.00;99.90
580;DHT22;276;48.392;9.950;2022-12-24T18:36:10;11.00;99.90
580;DHT22;276;48.392;9.950;2022-12-24T18:38:36;11.00;99.90
580;DHT22;276;48.392;9.950;2022-12-24T18:41:10;11.00;99.90
580;DHT22;276;48.392;9.950;2022-12-24T18:43:37;11.00;99.90
580;DHT22;276;48.392;9.950;2022-12-24T18:46:10;10.90;99.90
580;DHT22;276;48.392;9.950;2022-12-24T18:48:36;11.00;99.90
580;DHT22;276;48.392;9.950;2022-12-24T18:51:05;10.90;99.90
580;DHT22;276;48.392;9.950;2022-12-24T18:53:36;10.80;99.90
580;DHT22;276;48.392;9.950;2022-12-24T18:56:12;10.80;99.90
580;DHT22;276;48.392;9.950;2022-12-24T18:58:40;10.80;99.90
580;DHT22;276;48.392;9.950;2022-12-24T19:01:17;10.70;99.90
580;DHT22;276;48.392;9.950;2022-12-24T19:03:45;10.70;99.90
580;DHT22;276;48.392;9.950;2022-12-24T19:06:11;10.60;99.90
580;DHT22;276;48.392;9.950;2022-12-24T19:08:40;10.60;99.90
580;DHT22;276;48.392;9.950;2022-12-24T19:11:08;10.60;99.90
580;DHT22;276;48.392;9.950;2022-12-24T19:13:33;10.60;99.90
580;DHT22;276;48.392;9.950;2022-12-24T19:16:02;10.60;99.90
580;DHT22;276;48.392;9.950;2022-12-24T19:18:28;10.60;99.90
580;DHT22;276;48.392;9.950;2022-12-24T19:20:53;10.60;99.90
580;DHT22;276;48.392;9.950;2022-12-24T19:23:21;10.60;99.90
580;DHT22;276;48.392;9.950;2022-12-24T19:25:47;10.70;99.90
580;DHT22;276;48.392;9.950;2022-12-24T19:28:14;10.70;99.90
580;DHT22;276;48.392;9.950;2022-12-24T19:30:42;10.70;99.90
580;DHT22;276;48.392;9.950;2022-12-24T19:33:09;10.80;99.90
580;DHT22;276;48.392;9.950;2022-12-24T19:35:34;10.80;99.90
580;DHT22;276;48.392;9.950;2022-12-24T19:38:03;10.90;99.90